createdAt,value
2024-01-04T00:03:26.392Z,10.75
2024-01-04T00:08:48.287Z,9.85
2024-01-04T00:14:10.042Z,10.88
2024-01-04T00:19:31.861Z,7.45
2024-01-04T00:24:53.689Z,8.45
2024-01-04T00:30:15.562Z,9.02
2024-01-04T00:35:37.361Z,5.85
2024-01-04T00:40:59.111Z,8.05
2024-01-04T00:46:20.876Z,6.35
2024-01-04T00:51:42.652Z,6.28
2024-01-04T00:57:04.807Z,4.47
2024-01-04T01:02:26.598Z,5.18
2024-01-04T01:07:48.340Z,4.65
2024-01-04T01:13:10.086Z,7.05
2024-01-04T01:18:32.019Z,7.03
2024-01-04T01:23:53.867Z,4.43
2024-01-04T01:29:15.661Z,6.32
2024-01-04T01:34:37.483Z,5.05
2024-01-04T01:39:59.268Z,4.35
2024-01-04T01:45:21.561Z,7.07
2024-01-04T01:50:43.394Z,4.05
2024-01-04T01:56:05.652Z,3.67
2024-01-04T02:01:27.992Z,5.45
2024-01-04T02:06:49.861Z,5.05
2024-01-04T02:12:12.317Z,3.88
2024-01-04T02:17:34.853Z,4.38
2024-01-04T02:22:56.740Z,4.30
2024-01-04T02:28:18.484Z,5.00
2024-01-04T02:33:40.320Z,5.80
2024-01-04T02:39:02.217Z,6.93
2024-01-04T02:44:23.987Z,5.05
2024-01-04T02:49:45.960Z,6.72
2024-01-04T02:55:08.197Z,5.57
2024-01-04T03:00:29.988Z,6.53
2024-01-04T03:05:52.349Z,7.43
2024-01-04T03:11:14.115Z,5.72
2024-01-04T03:16:36.106Z,5.38
2024-01-04T03:21:57.858Z,5.63
2024-01-04T03:27:19.612Z,5.47
2024-01-04T03:32:41.449Z,5.63
2024-01-04T03:38:03.357Z,4.35
2024-01-04T03:43:25.222Z,3.72
2024-01-04T03:48:47.137Z,7.03
2024-01-04T03:54:08.937Z,4.97
2024-01-04T03:59:30.688Z,7.28
2024-01-04T04:04:52.501Z,4.78
2024-01-04T04:10:14.452Z,4.68
2024-01-04T04:15:36.248Z,4.65
2024-01-04T04:20:58.025Z,3.90
2024-01-04T04:26:20.737Z,4.68
2024-01-04T04:31:42.559Z,5.15
2024-01-04T04:37:04.732Z,5.25
2024-01-04T04:42:26.545Z,5.70
2024-01-04T04:47:48.484Z,4.47
2024-01-04T04:53:10.307Z,8.00
2024-01-04T04:58:32.060Z,4.40
2024-01-04T05:03:53.978Z,6.15
2024-01-04T05:09:15.797Z,4.47
2024-01-04T05:14:37.630Z,5.85
2024-01-04T05:19:59.405Z,5.65
2024-01-04T05:25:21.195Z,5.60
2024-01-04T05:30:43.027Z,7.18
2024-01-04T05:36:05.129Z,6.00
2024-01-04T05:41:26.903Z,6.65
2024-01-04T05:46:48.654Z,5.10
2024-01-04T05:52:10.373Z,4.85
2024-01-04T05:57:32.562Z,4.35
2024-01-04T06:02:54.343Z,4.15
2024-01-04T06:08:17.416Z,10.40
2024-01-04T06:13:39.217Z,5.85
2024-01-04T06:19:01.096Z,5.38
2024-01-04T06:24:23.117Z,7.40
2024-01-04T06:29:44.999Z,5.47
2024-01-04T06:35:07.037Z,4.28
2024-01-04T06:40:28.790Z,6.90
2024-01-04T06:45:51.548Z,6.07
2024-01-04T06:51:14.091Z,4.63
2024-01-04T06:56:35.900Z,7.10
2024-01-04T07:01:57.832Z,8.35
2024-01-04T07:07:19.618Z,5.47
2024-01-04T07:12:41.368Z,5.93
2024-01-04T07:18:03.409Z,8.52
2024-01-04T07:23:25.222Z,6.63
2024-01-04T07:28:46.988Z,6.25
2024-01-04T07:34:08.932Z,5.50
2024-01-04T07:39:30.786Z,7.32
2024-01-04T07:45:01.943Z,7.95
2024-01-04T07:50:27.832Z,5.10
2024-01-04T07:55:49.609Z,4.25
2024-01-04T08:01:11.410Z,5.78
2024-01-04T08:06:33.901Z,4.80
2024-01-04T08:11:55.862Z,9.00
2024-01-04T08:17:17.656Z,3.97
2024-01-04T08:22:39.441Z,5.72
2024-01-04T08:28:01.205Z,6.68
2024-01-04T08:33:23.082Z,7.07
2024-01-04T08:38:44.943Z,9.98
2024-01-04T08:44:06.704Z,5.30
2024-01-04T08:49:28.633Z,6.15
2024-01-04T08:54:50.472Z,4.80
2024-01-04T09:00:12.787Z,7.57
2024-01-04T09:05:34.612Z,7.55
2024-01-04T09:10:56.417Z,4.80
2024-01-04T09:16:18.181Z,6.88
2024-01-04T09:21:39.976Z,5.82
2024-01-04T09:27:01.857Z,4.90
2024-01-04T09:32:23.634Z,6.32
2024-01-04T09:37:45.367Z,4.93
2024-01-04T09:43:09.328Z,4.60
2024-01-04T09:48:35.229Z,4.40
2024-01-04T09:53:57.873Z,2.55
2024-01-04T09:59:19.919Z,3.85
2024-01-04T10:04:44.277Z,4.05
2024-01-04T10:10:17.261Z,5.63
2024-01-04T10:15:43.805Z,4.65
2024-01-04T10:26:27.648Z,5.18
2024-01-04T10:32:00.930Z,4.38
2024-01-04T10:37:22.704Z,4.35
2024-01-04T10:42:52.401Z,4.15
2024-01-04T10:48:15.721Z,3.45
2024-01-04T10:53:39.454Z,3.47
2024-01-04T10:59:03.471Z,3.45
2024-01-04T11:04:26.110Z,4.65
2024-01-04T11:09:50.089Z,5.32
2024-01-04T11:15:12.030Z,7.07
2024-01-04T11:21:08.979Z,6.10
2024-01-04T11:26:50.743Z,4.13
2024-01-04T11:32:12.579Z,4.95
2024-01-04T11:37:34.389Z,6.18
2024-01-04T11:42:56.349Z,6.40
2024-01-04T11:48:19.041Z,4.55
2024-01-04T11:53:40.944Z,4.88
2024-01-04T11:59:13.609Z,5.00
2024-01-04T12:04:36.470Z,8.48
2024-01-04T12:09:59.328Z,6.15
2024-01-04T12:15:21.161Z,5.22
2024-01-04T12:20:43.117Z,5.20
2024-01-04T12:26:05.355Z,5.20
2024-01-04T12:31:27.373Z,6.70
2024-01-04T12:36:49.249Z,6.97
2024-01-04T12:42:12.196Z,6.18
2024-01-04T12:47:34.132Z,4.72
2024-01-04T12:52:56.002Z,6.15
2024-01-04T12:58:17.751Z,4.30
2024-01-04T13:03:39.721Z,4.13
2024-01-04T13:09:01.544Z,5.65
2024-01-04T13:14:23.294Z,8.25
2024-01-04T13:19:45.086Z,5.85
2024-01-04T13:25:07.174Z,5.40
2024-01-04T13:30:29.014Z,4.50
2024-01-04T13:35:50.821Z,5.60
2024-01-04T13:41:12.592Z,5.45
2024-01-04T13:46:34.399Z,4.95
2024-01-04T13:51:56.096Z,6.20
2024-01-04T13:57:17.931Z,4.85
2024-01-04T14:02:39.792Z,3.40
2024-01-04T14:08:01.586Z,4.47
2024-01-04T14:13:23.359Z,4.18
2024-01-04T14:18:45.295Z,3.72
2024-01-04T14:24:07.293Z,3.45
2024-01-04T14:29:29.096Z,5.45
2024-01-04T14:34:50.925Z,4.85
2024-01-04T14:40:13.147Z,4.90
2024-01-04T14:45:34.935Z,4.15
2024-01-04T14:50:56.689Z,3.40
2024-01-04T14:56:18.512Z,5.10
2024-01-04T15:01:40.248Z,6.00
2024-01-04T15:07:03.306Z,8.02
2024-01-04T15:12:27.061Z,4.35
2024-01-04T15:17:49.003Z,4.65
2024-01-04T15:23:11.027Z,4.68
2024-01-04T15:28:32.827Z,6.50
2024-01-04T15:33:55.072Z,4.75
2024-01-04T15:39:17.013Z,5.35
2024-01-04T15:44:38.818Z,5.90
2024-01-04T15:50:00.616Z,5.60
2024-01-04T15:55:22.410Z,5.72
2024-01-04T16:00:44.279Z,6.10
2024-01-04T16:06:06.683Z,8.02
2024-01-04T16:11:28.508Z,7.18
2024-01-04T16:16:50.242Z,6.80
2024-01-04T16:22:12.006Z,3.40
2024-01-04T16:27:33.800Z,2.67
2024-01-04T16:32:56.361Z,3.78
2024-01-04T16:38:18.245Z,2.15
2024-01-04T16:43:39.999Z,1.83
2024-01-04T16:49:02.056Z,2.78
2024-01-04T16:54:23.967Z,3.13
2024-01-04T16:59:46.080Z,2.53
2024-01-04T17:05:08.118Z,2.22
2024-01-04T17:10:29.907Z,3.38
2024-01-04T17:15:51.683Z,3.80
2024-01-04T17:21:13.471Z,2.42
2024-01-04T17:26:35.304Z,3.33
2024-01-04T17:31:57.161Z,3.03
2024-01-04T17:37:19.007Z,2.83
2024-01-04T17:42:41.248Z,3.53
2024-01-04T17:48:03.388Z,2.65
2024-01-04T17:53:25.244Z,3.00
2024-01-04T17:58:47.010Z,2.72
2024-01-04T18:04:08.933Z,3.08
2024-01-04T18:09:30.886Z,3.05
2024-01-04T18:14:52.959Z,4.50
2024-01-04T18:20:14.757Z,3.70
2024-01-04T18:25:36.577Z,4.97
2024-01-04T18:30:58.419Z,4.10
2024-01-04T18:36:20.490Z,4.10
2024-01-04T18:41:42.606Z,5.60
2024-01-04T18:47:04.786Z,5.60
2024-01-04T18:52:26.562Z,2.50
2024-01-04T18:57:48.342Z,4.55
2024-01-04T19:03:10.150Z,3.83
2024-01-04T19:08:31.946Z,4.57
2024-01-04T19:13:53.743Z,3.47
2024-01-04T19:19:16.239Z,4.07
2024-01-04T19:24:38.175Z,3.65
2024-01-04T19:30:00.088Z,4.28
2024-01-04T19:35:22.040Z,2.95
2024-01-04T19:40:44.527Z,4.32
2024-01-04T19:46:10.369Z,3.60
2024-01-04T19:51:33.169Z,3.95
2024-01-04T19:56:55.098Z,4.05
2024-01-04T20:02:16.952Z,4.05
2024-01-04T20:07:38.989Z,4.32
2024-01-04T20:13:00.963Z,4.82
2024-01-04T20:18:23.013Z,6.15
2024-01-04T20:23:45.025Z,5.53
2024-01-04T20:29:07.125Z,4.70
2024-01-04T20:34:29.060Z,5.13
2024-01-04T20:39:50.865Z,5.57
2024-01-04T20:45:12.717Z,4.38
2024-01-04T20:50:34.483Z,5.85
2024-01-04T20:55:56.294Z,5.00
2024-01-04T21:01:18.113Z,6.25
2024-01-04T21:06:42.225Z,6.30
2024-01-04T21:12:05.874Z,7.70
2024-01-04T21:17:27.690Z,6.90
2024-01-04T21:22:49.612Z,10.75
2024-01-04T21:28:11.503Z,11.85
2024-01-04T21:33:33.381Z,11.13
2024-01-04T21:38:55.575Z,13.95
2024-01-04T21:44:17.523Z,13.32
2024-01-04T21:49:39.298Z,10.63
2024-01-04T21:55:01.098Z,12.95
2024-01-04T22:00:23.087Z,13.35
2024-01-04T22:05:45.087Z,12.75
2024-01-04T22:11:06.905Z,14.80
2024-01-04T22:16:40.069Z,16.52
2024-01-04T22:22:02.009Z,13.13
2024-01-04T22:27:23.788Z,13.07
2024-01-04T22:32:45.662Z,9.20
2024-01-04T22:38:07.567Z,8.15
2024-01-04T22:43:29.377Z,8.55
2024-01-04T22:48:51.171Z,7.13
2024-01-04T22:54:13.025Z,7.57
2024-01-04T22:59:34.822Z,6.60
2024-01-04T23:04:56.539Z,8.40
2024-01-04T23:10:18.576Z,7.55
2024-01-04T23:15:40.406Z,7.93
2024-01-04T23:21:06.778Z,10.75
2024-01-04T23:26:28.599Z,8.52
2024-01-04T23:31:50.368Z,8.00
2024-01-04T23:37:12.116Z,8.93
2024-01-04T23:42:33.940Z,10.95
2024-01-04T23:47:55.800Z,9.65
2024-01-04T23:53:17.686Z,10.23
2024-01-04T23:58:39.471Z,10.50
